createdAt,value
2018-05-25T00:02:15.174Z,27.00
2018-05-25T00:04:43.676Z,28.27
2018-05-25T00:07:12.168Z,32.20
2018-05-25T00:09:40.453Z,26.90
2018-05-25T00:12:08.699Z,31.93
2018-05-25T00:14:36.990Z,29.60
2018-05-25T00:17:05.263Z,26.57
2018-05-25T00:19:34.105Z,29.87
2018-05-25T00:22:03.726Z,29.83
2018-05-25T00:24:32.749Z,28.50
2018-05-25T00:27:01.016Z,28.90
2018-05-25T00:29:30.139Z,30.53
2018-05-25T00:31:58.417Z,31.17
2018-05-25T00:34:28.432Z,28.50
2018-05-25T00:36:56.712Z,29.17
2018-05-25T00:39:24.970Z,33.10
2018-05-25T00:41:54.046Z,28.80
2018-05-25T00:44:22.298Z,29.70
2018-05-25T00:46:50.576Z,29.23
2018-05-25T00:49:19.548Z,31.03
2018-05-25T00:51:47.825Z,31.30
2018-05-25T00:54:16.100Z,28.77
2018-05-25T00:56:45.136Z,32.23
2018-05-25T00:59:13.378Z,31.03
2018-05-25T01:01:41.652Z,34.13
2018-05-25T01:04:11.549Z,32.20
2018-05-25T01:06:40.560Z,27.70
2018-05-25T01:09:09.580Z,28.43
2018-05-25T01:11:37.858Z,32.87
2018-05-25T01:14:06.100Z,27.77
2018-05-25T01:16:34.460Z,30.37
2018-05-25T01:19:02.705Z,28.10
2018-05-25T01:21:30.985Z,28.27
2018-05-25T01:23:59.240Z,28.20
2018-05-25T01:26:28.283Z,32.57
2018-05-25T01:28:56.537Z,27.53
2018-05-25T01:31:25.828Z,30.67
2018-05-25T01:33:55.007Z,26.40
2018-05-25T01:36:31.404Z,27.87
2018-05-25T01:38:59.629Z,27.70
2018-05-25T01:41:27.949Z,24.20
2018-05-25T01:43:56.973Z,28.10
2018-05-25T01:46:26.010Z,27.70
2018-05-25T01:48:54.753Z,26.60
2018-05-25T01:51:24.267Z,29.27
2018-05-25T01:53:53.411Z,25.37
2018-05-25T01:56:21.732Z,26.23
2018-05-25T01:58:50.548Z,25.33
2018-05-25T02:01:19.581Z,24.90
2018-05-25T02:03:47.908Z,24.90
2018-05-25T02:06:16.172Z,26.00
2018-05-25T02:08:45.184Z,25.47
2018-05-25T02:11:13.583Z,26.77
2018-05-25T02:13:41.800Z,24.60
2018-05-25T02:16:10.072Z,25.73
2018-05-25T02:18:38.424Z,24.50
2018-05-25T02:21:06.663Z,24.27
2018-05-25T02:23:34.925Z,26.27
2018-05-25T02:26:03.204Z,24.83
2018-05-25T02:28:31.480Z,26.03
2018-05-25T02:30:59.761Z,24.10
2018-05-25T02:33:28.028Z,26.27
2018-05-25T02:35:57.769Z,26.65
2018-05-25T02:38:26.040Z,23.13
2018-05-25T02:40:55.037Z,30.17
2018-05-25T02:43:23.587Z,31.13
2018-05-25T02:45:51.833Z,28.67
2018-05-25T02:48:20.172Z,25.60
2018-05-25T02:50:49.197Z,24.37
2018-05-25T02:53:17.483Z,26.50
2018-05-25T02:55:45.720Z,26.13
2018-05-25T02:58:14.764Z,26.90
2018-05-25T03:00:43.611Z,27.13
2018-05-25T03:03:11.895Z,26.43
2018-05-25T03:05:40.657Z,27.07
2018-05-25T03:08:08.940Z,28.20
2018-05-25T03:10:37.314Z,32.30
2018-05-25T03:13:05.595Z,29.93
2018-05-25T03:15:33.853Z,28.90
2018-05-25T03:18:02.147Z,29.00
2018-05-25T03:20:30.440Z,28.53
2018-05-25T03:22:58.734Z,25.43
2018-05-25T03:25:26.947Z,27.37
2018-05-25T03:27:55.983Z,30.20
2018-05-25T03:30:24.242Z,28.27
2018-05-25T03:32:52.507Z,25.77
2018-05-25T03:35:21.545Z,28.87
2018-05-25T03:37:49.786Z,27.60
2018-05-25T03:40:19.560Z,25.93
2018-05-25T03:42:47.830Z,24.63
2018-05-25T03:45:16.080Z,26.80
2018-05-25T03:47:44.343Z,26.07
2018-05-25T03:50:14.091Z,25.80
2018-05-25T03:52:42.343Z,24.70
2018-05-25T03:55:11.432Z,29.00
2018-05-25T03:57:39.815Z,28.40
2018-05-25T04:00:19.964Z,27.83
2018-05-25T04:02:48.226Z,27.83
2018-05-25T04:05:16.719Z,30.43
2018-05-25T04:07:45.093Z,26.47
2018-05-25T04:10:13.351Z,23.03
2018-05-25T04:12:41.592Z,26.50
2018-05-25T04:15:10.687Z,28.00
2018-05-25T04:17:38.920Z,25.93
2018-05-25T04:20:07.184Z,26.40
2018-05-25T04:22:35.481Z,28.17
2018-05-25T04:25:03.755Z,25.93
2018-05-25T04:27:32.031Z,27.07
2018-05-25T04:30:00.757Z,26.23
2018-05-25T04:32:29.060Z,23.63
2018-05-25T04:34:57.428Z,25.83
2018-05-25T04:37:25.695Z,27.80
2018-05-25T04:39:54.015Z,25.70
2018-05-25T04:42:24.768Z,27.20
2018-05-25T04:44:53.954Z,27.17
2018-05-25T04:47:22.193Z,25.90
2018-05-25T04:49:50.461Z,27.63
2018-05-25T04:52:18.727Z,29.30
2018-05-25T04:54:47.568Z,25.43
2018-05-25T04:57:15.850Z,28.90
2018-05-25T04:59:44.601Z,31.40
2018-05-25T05:02:12.844Z,28.60
2018-05-25T05:04:41.156Z,29.30
2018-05-25T05:07:09.428Z,28.00
2018-05-25T05:09:38.580Z,26.07
2018-05-25T05:12:06.892Z,27.63
2018-05-25T05:14:36.057Z,30.40
2018-05-25T05:17:04.316Z,28.37
2018-05-25T05:19:32.687Z,28.33
2018-05-25T05:22:00.944Z,25.27
2018-05-25T05:24:29.993Z,29.13
2018-05-25T05:26:58.343Z,28.73
2018-05-25T05:29:27.395Z,27.33
2018-05-25T05:31:55.663Z,24.73
2018-05-25T05:34:24.035Z,27.50
2018-05-25T05:36:52.305Z,24.90
2018-05-25T05:39:20.566Z,22.93
2018-05-25T05:41:48.844Z,27.10
2018-05-25T05:44:22.234Z,25.90
2018-05-25T05:46:50.484Z,26.63
2018-05-25T05:49:18.713Z,25.52
2018-05-25T05:51:46.983Z,26.57
2018-05-25T05:54:15.216Z,22.50
2018-05-25T05:56:44.259Z,20.87
2018-05-25T05:59:14.010Z,26.13
2018-05-25T06:01:42.276Z,26.20
2018-05-25T06:04:10.536Z,26.37
2018-05-25T06:06:39.588Z,23.40
2018-05-25T06:09:07.858Z,23.60
2018-05-25T06:11:36.206Z,24.63
2018-05-25T06:14:05.215Z,25.33
2018-05-25T06:16:34.247Z,24.13
2018-05-25T06:19:02.496Z,25.80
2018-05-25T06:21:31.364Z,19.70
2018-05-25T06:23:59.625Z,20.73
2018-05-25T06:26:28.683Z,23.20
2018-05-25T06:28:57.002Z,23.37
2018-05-25T06:31:25.244Z,22.40
2018-05-25T06:33:53.541Z,21.45
2018-05-25T06:36:21.824Z,25.20
2018-05-25T06:38:50.081Z,22.30
2018-05-25T06:41:18.932Z,23.77
2018-05-25T06:43:47.168Z,24.35
2018-05-25T06:46:15.895Z,23.42
2018-05-25T06:48:44.142Z,25.37
2018-05-25T06:51:12.416Z,22.60
2018-05-25T06:53:40.673Z,25.92
2018-05-25T06:56:10.508Z,24.42
2018-05-25T06:58:38.751Z,23.17
2018-05-25T07:01:07.019Z,23.00
2018-05-25T07:03:35.377Z,20.20
2018-05-25T07:06:04.428Z,18.30
2018-05-25T07:08:33.439Z,17.92
2018-05-25T07:11:02.477Z,20.50
2018-05-25T07:13:30.738Z,19.75
2018-05-25T07:15:59.003Z,20.45
2018-05-25T07:18:28.020Z,21.50
2018-05-25T07:20:56.296Z,19.77
2018-05-25T07:23:24.547Z,19.98
2018-05-25T07:25:52.786Z,20.35
2018-05-25T07:28:21.897Z,21.23
2018-05-25T07:30:50.178Z,19.27
2018-05-25T07:33:18.418Z,21.00
2018-05-25T07:35:47.460Z,19.00
2018-05-25T07:38:15.723Z,21.15
2018-05-25T07:40:43.995Z,18.37
2018-05-25T07:43:12.415Z,19.25
2018-05-25T07:45:40.699Z,19.85
2018-05-25T07:48:08.963Z,18.60
2018-05-25T07:50:37.679Z,20.15
2018-05-25T07:53:05.931Z,18.50
2018-05-25T07:55:35.663Z,16.20
2018-05-25T07:58:03.943Z,16.02
2018-05-25T08:00:32.194Z,17.20
2018-05-25T08:03:00.455Z,14.98
2018-05-25T08:05:29.464Z,15.38
2018-05-25T08:07:58.926Z,13.80
2018-05-25T08:10:27.188Z,12.23
2018-05-25T08:12:55.474Z,13.18
2018-05-25T08:15:23.843Z,11.93
2018-05-25T08:17:52.843Z,9.90
2018-05-25T08:20:21.692Z,9.75
2018-05-25T08:22:50.731Z,9.82
2018-05-25T08:25:19.009Z,11.48
2018-05-25T08:27:47.288Z,12.05
2018-05-25T08:30:15.835Z,13.77
2018-05-25T08:32:44.952Z,19.42
2018-05-25T08:35:13.233Z,18.92
2018-05-25T08:37:41.539Z,15.68
2018-05-25T08:40:09.776Z,16.75
2018-05-25T08:42:38.820Z,16.42
2018-05-25T08:45:07.059Z,16.35
2018-05-25T08:47:36.091Z,19.80
2018-05-25T08:50:04.941Z,17.35
2018-05-25T08:52:33.212Z,20.42
2018-05-25T08:55:01.481Z,18.25
2018-05-25T08:57:29.706Z,16.25
2018-05-25T08:59:58.728Z,15.57
2018-05-25T09:02:27.016Z,18.52
2018-05-25T09:04:55.249Z,15.10
2018-05-25T09:07:24.893Z,18.77
2018-05-25T09:09:53.151Z,18.80
2018-05-25T09:12:22.195Z,18.00
2018-05-25T09:14:51.189Z,15.05
2018-05-25T09:17:19.483Z,17.23
2018-05-25T09:19:47.708Z,16.05
2018-05-25T09:22:16.748Z,15.27
2018-05-25T09:24:45.009Z,15.25
2018-05-25T09:27:13.992Z,16.95
2018-05-25T09:29:43.021Z,17.45
2018-05-25T09:32:11.321Z,15.85
2018-05-25T09:34:40.351Z,14.27
2018-05-25T09:37:09.440Z,15.35
2018-05-25T09:39:37.714Z,15.95
2018-05-25T09:42:05.952Z,17.20
2018-05-25T09:44:35.159Z,15.27
2018-05-25T09:47:03.426Z,16.67
2018-05-25T09:49:33.078Z,14.98
2018-05-25T09:52:01.343Z,14.77
2018-05-25T09:54:29.578Z,13.38
2018-05-25T09:56:59.928Z,13.90
2018-05-25T09:59:28.206Z,13.13
2018-05-25T10:01:57.266Z,13.10
2018-05-25T10:04:25.510Z,13.43
2018-05-25T10:06:53.815Z,11.77
2018-05-25T10:09:22.091Z,12.57
2018-05-25T10:11:50.360Z,11.95
2018-05-25T10:14:18.616Z,14.30
2018-05-25T10:16:47.635Z,12.35
2018-05-25T10:19:15.916Z,11.07
2018-05-25T10:21:44.159Z,14.70
2018-05-25T10:24:13.265Z,13.38
2018-05-25T10:26:42.293Z,14.63
2018-05-25T10:29:10.655Z,14.07
2018-05-25T10:31:40.456Z,15.18
2018-05-25T10:34:08.713Z,11.20
2018-05-25T10:36:36.960Z,12.18
2018-05-25T10:39:06.086Z,15.95
2018-05-25T10:41:34.343Z,17.83
2018-05-25T10:44:02.610Z,16.60
2018-05-25T10:46:30.885Z,13.93
2018-05-25T10:48:59.151Z,12.95
2018-05-25T10:51:28.157Z,14.90
2018-05-25T10:53:56.418Z,14.52
2018-05-25T10:56:24.678Z,15.38
2018-05-25T10:58:52.948Z,18.37
2018-05-25T11:01:21.229Z,17.58
2018-05-25T11:03:49.516Z,16.40
2018-05-25T11:06:17.732Z,12.00
2018-05-25T11:08:46.774Z,14.73
2018-05-25T11:11:15.105Z,14.75
2018-05-25T11:13:43.331Z,10.98
2018-05-25T11:16:15.217Z,11.77
2018-05-25T11:18:43.438Z,13.00
2018-05-25T11:21:12.469Z,12.52
2018-05-25T11:23:40.716Z,10.85
2018-05-25T11:26:09.741Z,11.55
2018-05-25T11:28:37.993Z,12.60
2018-05-25T11:31:06.268Z,15.10
2018-05-25T11:33:34.540Z,13.82
2018-05-25T11:36:03.273Z,14.10
2018-05-25T11:38:31.505Z,13.15
2018-05-25T11:41:00.701Z,11.50
2018-05-25T11:43:29.553Z,7.85
2018-05-25T11:45:58.580Z,6.90
2018-05-25T11:48:26.830Z,8.40
2018-05-25T11:50:55.119Z,6.40
2018-05-25T11:53:24.220Z,7.10
2018-05-25T11:55:52.484Z,8.35
2018-05-25T11:58:20.808Z,5.97
2018-05-25T12:00:49.056Z,7.50
2018-05-25T12:03:17.301Z,6.85
2018-05-25T12:05:45.571Z,8.60
2018-05-25T12:08:14.651Z,9.05
2018-05-25T12:10:42.904Z,9.77
2018-05-25T12:13:11.144Z,9.32
2018-05-25T12:15:39.424Z,9.15
2018-05-25T12:18:12.067Z,12.55
2018-05-25T12:20:40.329Z,13.32
2018-05-25T12:23:08.619Z,14.32
2018-05-25T12:25:37.009Z,11.98
2018-05-25T12:28:05.310Z,14.40
2018-05-25T12:30:33.556Z,12.65
2018-05-25T12:33:02.604Z,13.77
2018-05-25T12:35:30.852Z,15.13
2018-05-25T12:37:59.090Z,12.02
2018-05-25T12:40:28.166Z,15.18
2018-05-25T12:42:56.361Z,16.05
2018-05-25T12:45:25.247Z,12.95
2018-05-25T12:47:53.558Z,14.02
2018-05-25T12:50:22.679Z,14.38
2018-05-25T12:52:50.955Z,12.15
2018-05-25T12:55:19.976Z,13.65
2018-05-25T12:57:48.235Z,11.88
2018-05-25T13:00:16.516Z,15.50
2018-05-25T13:02:44.772Z,10.70
2018-05-25T13:05:13.104Z,14.25
2018-05-25T13:07:41.379Z,11.12
2018-05-25T13:10:09.632Z,11.25
2018-05-25T13:12:37.890Z,10.60
2018-05-25T13:15:06.181Z,9.93
2018-05-25T13:17:35.210Z,12.27
2018-05-25T13:20:03.468Z,10.43
2018-05-25T13:22:32.495Z,9.55
2018-05-25T13:25:00.729Z,10.32
2018-05-25T13:27:29.045Z,11.32
2018-05-25T13:29:57.335Z,10.38
2018-05-25T13:32:25.595Z,8.90
2018-05-25T13:34:54.612Z,11.38
2018-05-25T13:37:22.885Z,11.27
2018-05-25T13:39:51.719Z,9.85
2018-05-25T13:42:19.968Z,10.38
2018-05-25T13:44:49.167Z,11.60
2018-05-25T13:47:18.278Z,11.50
2018-05-25T13:49:46.517Z,10.57
2018-05-25T13:52:14.777Z,11.48
2018-05-25T13:54:43.496Z,9.90
2018-05-25T13:57:13.233Z,10.07
2018-05-25T13:59:41.544Z,10.35
2018-05-25T14:02:10.284Z,8.55
2018-05-25T14:04:39.319Z,8.50
2018-05-25T14:07:07.585Z,11.70
2018-05-25T14:09:36.620Z,8.85
2018-05-25T14:12:04.918Z,8.57
2018-05-25T14:14:33.193Z,8.65
2018-05-25T14:17:01.523Z,8.07
2018-05-25T14:19:30.540Z,9.13
2018-05-25T14:21:58.785Z,7.55
2018-05-25T14:24:27.040Z,8.00
2018-05-25T14:26:56.058Z,6.90
2018-05-25T14:29:24.390Z,7.80
2018-05-25T14:31:54.102Z,7.57
2018-05-25T14:34:22.374Z,6.95
2018-05-25T14:36:50.633Z,7.32
2018-05-25T14:39:20.128Z,7.85
2018-05-25T14:41:48.393Z,7.85
2018-05-25T14:44:16.717Z,6.60
2018-05-25T14:46:45.741Z,7.82
2018-05-25T14:49:14.607Z,8.52
2018-05-25T14:51:42.868Z,8.02
2018-05-25T14:54:11.122Z,7.05
2018-05-25T14:56:39.381Z,9.32
2018-05-25T14:59:07.694Z,9.88
2018-05-25T15:01:35.916Z,10.68
2018-05-25T15:04:04.619Z,9.95
2018-05-25T15:06:33.615Z,9.30
2018-05-25T15:09:02.637Z,9.05
2018-05-25T15:11:30.911Z,9.82
2018-05-25T15:13:59.230Z,9.88
2018-05-25T15:16:27.469Z,8.57
2018-05-25T15:18:55.748Z,7.97
2018-05-25T15:21:24.002Z,7.75
2018-05-25T15:23:52.263Z,9.10
2018-05-25T15:26:20.505Z,9.32
2018-05-25T15:28:49.304Z,8.93
2018-05-25T15:31:17.537Z,9.80
2018-05-25T15:33:46.560Z,9.05
2018-05-25T15:36:15.672Z,8.88
2018-05-25T15:38:44.914Z,9.32
2018-05-25T15:41:13.159Z,9.02
2018-05-25T15:43:41.420Z,8.73
2018-05-25T15:46:10.264Z,9.57
2018-05-25T15:48:38.532Z,7.30
2018-05-25T15:51:06.780Z,6.45
2018-05-25T15:53:35.051Z,6.28
2018-05-25T15:56:04.095Z,7.60
2018-05-25T15:58:32.321Z,7.40
2018-05-25T16:01:01.555Z,7.53
2018-05-25T16:03:29.824Z,6.70
2018-05-25T16:05:58.150Z,8.10
2018-05-25T16:08:26.396Z,7.12
2018-05-25T16:10:54.688Z,6.78
2018-05-25T16:13:22.950Z,6.62
2018-05-25T16:15:51.193Z,7.75
2018-05-25T16:18:19.435Z,6.87
2018-05-25T16:20:47.669Z,6.97
2018-05-25T16:23:16.716Z,6.78
2018-05-25T16:25:45.084Z,6.68
2018-05-25T16:28:14.111Z,6.25
2018-05-25T16:30:42.331Z,5.55
2018-05-25T16:33:11.300Z,5.15
2018-05-25T16:35:39.540Z,5.80
2018-05-25T16:38:07.789Z,4.90
2018-05-25T16:40:36.793Z,5.25
2018-05-25T16:43:05.068Z,5.40
2018-05-25T16:45:34.074Z,5.72
2018-05-25T16:48:03.136Z,6.07
2018-05-25T16:50:31.975Z,5.90
2018-05-25T16:53:01.040Z,5.57
2018-05-25T16:55:29.273Z,6.15
2018-05-25T16:57:58.520Z,6.72
2018-05-25T17:00:26.805Z,7.70
2018-05-25T17:02:55.916Z,5.90
2018-05-25T17:05:24.148Z,4.90
2018-05-25T17:07:52.448Z,6.12
2018-05-25T17:10:20.696Z,5.93
2018-05-25T17:12:49.520Z,5.68
2018-05-25T17:15:17.664Z,5.35
2018-05-25T17:17:47.416Z,5.97
2018-05-25T17:20:16.245Z,6.32
2018-05-25T17:22:44.496Z,5.50
2018-05-25T17:25:13.349Z,6.37
2018-05-25T17:27:41.611Z,6.00
2018-05-25T17:30:09.937Z,5.10
2018-05-25T17:32:39.036Z,6.18
2018-05-25T17:35:07.304Z,6.65
2018-05-25T17:37:36.188Z,5.72
2018-05-25T17:40:05.205Z,6.53
2018-05-25T17:42:33.432Z,6.18
2018-05-25T17:45:01.709Z,5.87
2018-05-25T17:47:29.952Z,6.70
2018-05-25T17:49:58.215Z,6.03
2018-05-25T17:52:26.465Z,5.22
2018-05-25T17:54:55.166Z,5.87
2018-05-25T17:57:24.767Z,5.93
2018-05-25T17:59:53.041Z,6.28
2018-05-25T18:02:21.297Z,6.12
2018-05-25T18:04:49.602Z,5.20
2018-05-25T18:07:17.840Z,6.22
2018-05-25T18:09:46.123Z,6.12
2018-05-25T18:12:14.390Z,6.47
2018-05-25T18:14:43.347Z,6.53
2018-05-25T18:17:11.661Z,6.07
2018-05-25T18:19:40.676Z,6.50
2018-05-25T18:22:08.927Z,6.40
2018-05-25T18:24:37.971Z,5.30
2018-05-25T18:27:06.254Z,7.22
2018-05-25T18:29:35.513Z,5.87
2018-05-25T18:32:03.783Z,5.85
2018-05-25T18:34:32.049Z,5.78
2018-05-25T18:37:00.327Z,5.12
2018-05-25T18:39:28.599Z,5.75
2018-05-25T18:41:56.886Z,6.20
2018-05-25T18:44:25.144Z,5.95
2018-05-25T18:46:53.509Z,6.00
2018-05-25T18:49:21.784Z,5.50
2018-05-25T18:51:50.850Z,5.62
2018-05-25T18:54:30.965Z,5.95
2018-05-25T18:56:59.204Z,9.90
2018-05-25T18:59:28.232Z,5.87
2018-05-25T19:01:56.501Z,8.60
2018-05-25T19:04:24.841Z,6.95
2018-05-25T19:06:53.072Z,7.93
2018-05-25T19:09:22.485Z,6.93
2018-05-25T19:11:51.225Z,7.40
2018-05-25T19:14:20.610Z,7.30
2018-05-25T19:16:48.857Z,7.12
2018-05-25T19:19:17.124Z,7.18
2018-05-25T19:21:46.249Z,8.43
2018-05-25T19:24:14.512Z,7.35
2018-05-25T19:26:42.765Z,8.07
2018-05-25T19:29:11.025Z,6.93
2018-05-25T19:31:39.285Z,7.82
2018-05-25T19:34:07.532Z,8.57
2018-05-25T19:36:35.797Z,8.10
2018-05-25T19:39:05.658Z,8.70
2018-05-25T19:41:33.919Z,8.20
2018-05-25T19:44:02.301Z,8.18
2018-05-25T19:46:31.124Z,7.95
2018-05-25T19:48:59.347Z,8.07
2018-05-25T19:51:28.391Z,7.55
2018-05-25T19:53:56.620Z,9.35
2018-05-25T19:56:24.895Z,8.57
2018-05-25T19:58:53.121Z,8.80
2018-05-25T20:01:21.458Z,7.85
2018-05-25T20:03:49.699Z,8.95
2018-05-25T20:06:18.569Z,8.90
2018-05-25T20:08:46.817Z,8.00
2018-05-25T20:11:15.096Z,9.18
2018-05-25T20:13:43.373Z,8.80
2018-05-25T20:16:11.678Z,9.55
2018-05-25T20:18:40.609Z,10.60
2018-05-25T20:21:08.896Z,8.85
2018-05-25T20:23:37.200Z,9.93
2018-05-25T20:26:05.440Z,8.80
2018-05-25T20:28:33.769Z,9.50
2018-05-25T20:31:02.684Z,9.70
2018-05-25T20:33:30.948Z,10.40
2018-05-25T20:35:59.547Z,9.25
2018-05-25T20:38:27.888Z,10.30
2018-05-25T20:40:56.174Z,11.00
2018-05-25T20:43:24.503Z,10.20
2018-05-25T20:45:52.766Z,9.60
2018-05-25T20:48:21.029Z,10.48
2018-05-25T20:50:49.293Z,9.52
2018-05-25T20:53:17.564Z,9.35
2018-05-25T20:55:45.804Z,9.82
2018-05-25T20:58:14.089Z,10.80
2018-05-25T21:00:42.378Z,10.50
2018-05-25T21:03:10.608Z,10.25
2018-05-25T21:05:38.864Z,9.93
2018-05-25T21:08:07.114Z,10.02
2018-05-25T21:10:36.325Z,10.50
2018-05-25T21:13:05.351Z,11.68
2018-05-25T21:15:33.608Z,10.60
2018-05-25T21:18:02.651Z,9.50
2018-05-25T21:20:30.926Z,10.60
2018-05-25T21:22:59.946Z,10.93
2018-05-25T21:25:28.308Z,12.15
2018-05-25T21:27:56.560Z,11.80
2018-05-25T21:30:25.592Z,11.23
2018-05-25T21:32:53.828Z,9.50
2018-05-25T21:35:22.902Z,10.95
2018-05-25T21:37:51.155Z,10.25
2018-05-25T21:40:19.455Z,10.43
2018-05-25T21:42:47.795Z,11.32
2018-05-25T21:45:15.950Z,10.48
2018-05-25T21:47:45.005Z,11.83
2018-05-25T21:50:13.312Z,11.18
2018-05-25T21:52:41.629Z,10.65
2018-05-25T21:55:10.638Z,10.73
2018-05-25T21:57:39.677Z,9.40
2018-05-25T22:00:07.932Z,10.48
2018-05-25T22:02:37.106Z,11.15
2018-05-25T22:05:06.130Z,10.85
2018-05-25T22:07:34.397Z,10.57
2018-05-25T22:10:03.409Z,11.23
2018-05-25T22:12:31.676Z,10.05
2018-05-25T22:14:59.998Z,9.40
2018-05-25T22:17:28.263Z,10.93
2018-05-25T22:19:56.511Z,10.05
2018-05-25T22:22:25.657Z,11.85
2018-05-25T22:24:53.896Z,10.70
2018-05-25T22:27:22.917Z,10.73
2018-05-25T22:29:51.297Z,10.88
2018-05-25T22:32:20.330Z,10.10
2018-05-25T22:34:48.597Z,8.85
2018-05-25T22:37:16.876Z,10.77
2018-05-25T22:39:45.137Z,11.25
2018-05-25T22:42:12.934Z,10.82
2018-05-25T22:44:52.923Z,10.65
2018-05-25T22:47:33.711Z,9.93
2018-05-25T22:50:13.875Z,10.40
2018-05-25T22:52:47.264Z,9.57
2018-05-25T22:55:15.512Z,10.23
2018-05-25T22:57:43.786Z,9.90
2018-05-25T23:00:12.027Z,10.25
2018-05-25T23:02:40.289Z,9.52
2018-05-25T23:05:08.530Z,9.48
2018-05-25T23:07:36.793Z,10.20
2018-05-25T23:10:05.666Z,9.70
2018-05-25T23:12:33.936Z,8.70
2018-05-25T23:15:02.843Z,10.05
2018-05-25T23:17:31.167Z,9.90
2018-05-25T23:19:59.432Z,10.27
2018-05-25T23:22:28.470Z,9.93
2018-05-25T23:24:57.492Z,11.23
2018-05-25T23:27:25.778Z,12.13
2018-05-25T23:29:54.887Z,11.27
2018-05-25T23:32:23.149Z,13.37
2018-05-25T23:34:51.416Z,12.60
2018-05-25T23:37:20.462Z,11.50
2018-05-25T23:39:48.708Z,12.07
2018-05-25T23:42:16.970Z,12.07
2018-05-25T23:44:46.689Z,11.20
2018-05-25T23:47:15.717Z,11.40
2018-05-25T23:49:43.975Z,11.63
2018-05-25T23:52:12.244Z,12.32
2018-05-25T23:54:41.283Z,11.70
2018-05-25T23:57:09.525Z,10.55
2018-05-25T23:59:38.562Z,10.87
